CEN4 weather

High River Airport
High River, Alberta, Canada

Public forecast

Using degrees Celsius for public forecast. Weather courtesy of forecast.io.

Closest aviation weather report (METAR) to High River Airport

Closest report is Calgary International Airport, 35.6 nm (65.9 km) NNW. Retrieved 2019/12/15 07:00 UTC (39 minutes ago):

CYYC 150700Z 36006KT 15SM FEW082 M13/M15 A2973 RMK AC1 AC TR SLP138

Closest aviation forecast (TAF) to High River Airport

Closest forecast is Calgary International Airport, 35.6 nm (65.9 km) NNW. Retrieved 2019/12/15 09:40 UTC (0 seconds ago):

TAF CYYC 150838Z 1509/1606 34005KT P6SM FEW030 FM151200 30006KT P6SM FEW080 PROB30 1512/1518 1SM BR FM151800 26008KT P6SM FEW100 BECMG 1522/1524 28012KT RMK NXT FCST BY 151200Z